Gage, OK (73843)

3:07 PM CDT on March 28, 2017 (GMT -0500)
Barnes - Farm | | Change Station

Elev 2220 ft 36.28 °N, 99.80 °W | Updated 6 seconds ago

Overcast
Overcast
49.9 °F
Feels Like 46 °F
N
9.0
Wind Variable Wind from East
Gusts 24.0 mph

Today
High -- | Low -- °F
--% Chance of Precip.
Yesterday
High -- | Low -- °F
Precip. -- in
Pressure 29.78 in
Visibility 10.0 miles
Clouds Overcast 1000 ft
Windchill 46 °F
Dew Point 48 °F
Humidity 95%
Rainfall 0.30 in
Snow Depth Not available.
7:30 AM 7:57 PM
New Moon, 1% visible
METAR KGAG 281953Z AUTO 09011G20KT 10SM OVC010 11/09 A2979 RMK AO2 RAE16 CIG 008V014 SLP084 P0000 T01060089
Pressure 29.78 in
Visibility 10.0 miles
Clouds Overcast 1000 ft
Windchill 46 °F
Dew Point 48 °F
Humidity 95%
Rainfall 0.30 in
Snow Depth Not available.
7:30 AM 7:57 PM
New Moon, 1% visible
METAR KGAG 281953Z AUTO 09011G20KT 10SM OVC010 11/09 A2979 RMK AO2 RAE16 CIG 008V014 SLP084 P0000 T01060089

Get Severe Weather Alerts

Thanks for signing up!

Be on the lookout for a verification email in your inbox.

You'll start receiving the daily forecast at 8 AM.

×

10-Day Weather Forecast

Almanac

Astronomy

Mar. 28, 2017 Rise Set
Actual Time
Civil Twilight
Nautical Twilight
Astronomical Twilight
Moon
Length of Visible Light
Length of Day
Tomorrow will be .
, % of the Moon is Illuminated

Today's Extremes

State Highs State Lows

Community

WunderPhotos

Upload Photos

1,962,540 photos uploaded!

WunderBlog® & News

Nearby

Air Quality

  Air Quality AQ Index Pollutant
Not available.

Snow Depth

Station Depth Elevation

Earthquake Activity

City Distance Mag. Time & Date
Minimum magnitude displayed is 2.5.

Earthquake Activity

City Distance Mag. Time & Date
Minimum magnitude displayed is 2.5.

Coastal Water Temperatures

Place Temperature

Stations

Nearby Weather Stations

Station Location Temp. Windchill Dew Point Humidity Wind Precip. Elev Updated Type
                   

Watches & Warnings

There are currently no watches in effect.